Scruggs, Virginia
Current Conditions -  °F | °C
As of 12:54 PM on Sunday 21 Dec 2014 (Local Time) from KROA Reporting Station
Broken Clouds Broken Clouds  
Wind Chill: 44°   Ceiling: 4100
Heat Index: 44°   Visibility: 10mi
Dew Point: 29°   Wind: 0mph
Humidity: 55%   Direction: NA
Pressure: 30.25"   Gusts: NA
Location:  37.2404°N, 79.6336°W
Report Text: KROA 211754Z 00000KT 10SM BKN041 07/M02 A3025 RMK AO2 SLP248 T00671017 10067 20017 58020
Loading
Personal Weather Stations






























Interactive Weather Map New forecast layout! Learn more

10-Day Weather Forecast

Advertisements
Track Severe Weather on mobile